21:27
Airports
Links
Donate
Help keep this website running!
PayPal
Bitcoin
MATER
No METAR for LFRL
Current Weather Conditions at
No weather report for LFRL
TAF
TAF LFRL 201400Z 2015/2024 36017G27KT 9999 BKN025 TEMPO 2015/2024 CAVOK
Forecast at LFRL
15:00 20-02-18 to 00:00 21-02-18
Wind:17 Knots from 360°
Visibility:6.21 statute miles
2500BKN Broken
TEMPO 15:00 20-02-18 to 00:00 21-02-18
NSW
Visibility:6.21 statute miles
NSC